sensor_id;sensor_type;location;lat;lon;timestamp;pressure;altitude;pressure_sealevel;temperature;humidity
45369;BME280;51342;55.250;37.668;2023-04-05T00:02:10;99790.13;;;2.09;74.52
45369;BME280;51342;55.250;37.668;2023-04-05T00:04:44;99784.13;;;2.08;74.24
45369;BME280;51342;55.250;37.668;2023-04-05T00:07:22;99791.97;;;2.10;74.08
45369;BME280;51342;55.250;37.668;2023-04-05T00:09:56;99790.75;;;2.06;74.04
45369;BME280;51342;55.250;37.668;2023-04-05T00:12:39;99789.44;;;2.01;74.13
45369;BME280;51342;55.250;37.668;2023-04-05T00:15:11;99789.00;;;1.97;73.94
45369;BME280;51342;55.250;37.668;2023-04-05T00:17:43;99792.78;;;1.92;74.01
45369;BME280;51342;55.250;37.668;2023-04-05T00:20:15;99775.75;;;1.82;74.07
45369;BME280;51342;55.250;37.668;2023-04-05T00:22:58;99777.88;;;1.77;74.25
45369;BME280;51342;55.250;37.668;2023-04-05T00:25:30;99782.09;;;1.77;74.58
45369;BME280;51342;55.250;37.668;2023-04-05T00:28:01;99783.88;;;1.78;74.26
45369;BME280;51342;55.250;37.668;2023-04-05T00:30:33;99780.69;;;1.80;74.29
45369;BME280;51342;55.250;37.668;2023-04-05T00:33:16;99778.47;;;1.75;74.23
45369;BME280;51342;55.250;37.668;2023-04-05T00:36:17;99792.19;;;1.67;74.13
45369;BME280;51342;55.250;37.668;2023-04-05T00:39:06;99786.91;;;1.38;74.67
45369;BME280;51342;55.250;37.668;2023-04-05T00:41:38;99786.41;;;1.50;74.49
45369;BME280;51342;55.250;37.668;2023-04-05T00:44:10;99784.00;;;1.52;74.55
45369;BME280;51342;55.250;37.668;2023-04-05T00:46:43;99780.84;;;1.54;74.51
45369;BME280;51342;55.250;37.668;2023-04-05T00:49:14;99792.38;;;1.59;74.32
45369;BME280;51342;55.250;37.668;2023-04-05T00:51:46;99781.13;;;1.57;74.12
45369;BME280;51342;55.250;37.668;2023-04-05T00:54:18;99790.72;;;1.60;73.85
45369;BME280;51342;55.250;37.668;2023-04-05T00:56:49;99790.22;;;1.64;73.72
45369;BME280;51342;55.250;37.668;2023-04-05T00:59:23;99786.53;;;1.61;73.92
45369;BME280;51342;55.250;37.668;2023-04-05T01:01:59;99791.75;;;1.62;73.80
45369;BME280;51342;55.250;37.668;2023-04-05T01:04:35;99792.50;;;1.61;73.75
45369;BME280;51342;55.250;37.668;2023-04-05T01:07:18;99791.81;;;1.53;73.94
45369;BME280;51342;55.250;37.668;2023-04-05T01:09:58;99790.03;;;1.44;74.03
45369;BME280;51342;55.250;37.668;2023-04-05T01:12:32;99788.72;;;1.39;74.24
45369;BME280;51342;55.250;37.668;2023-04-05T01:15:04;99784.97;;;1.35;74.42
45369;BME280;51342;55.250;37.668;2023-04-05T01:17:36;99790.38;;;1.29;74.38
45369;BME280;51342;55.250;37.668;2023-04-05T01:20:09;99792.34;;;1.32;74.56
45369;BME280;51342;55.250;37.668;2023-04-05T01:31:36;99793.16;;;1.14;74.78
45369;BME280;51342;55.250;37.668;2023-04-05T01:37:25;99796.91;;;1.00;74.92
45369;BME280;51342;55.250;37.668;2023-04-05T01:39:58;99798.56;;;0.99;74.91
45369;BME280;51342;55.250;37.668;2023-04-05T01:42:30;99801.09;;;0.99;75.01
45369;BME280;51342;55.250;37.668;2023-04-05T01:45:01;99797.34;;;0.96;75.17
45369;BME280;51342;55.250;37.668;2023-04-05T01:47:33;99803.22;;;0.95;75.26
45369;BME280;51342;55.250;37.668;2023-04-05T01:50:05;99802.31;;;0.94;75.08
45369;BME280;51342;55.250;37.668;2023-04-05T01:52:37;99802.44;;;0.96;75.26
45369;BME280;51342;55.250;37.668;2023-04-05T01:55:08;99801.88;;;0.98;75.24
45369;BME280;51342;55.250;37.668;2023-04-05T01:57:41;99805.00;;;0.96;75.20
45369;BME280;51342;55.250;37.668;2023-04-05T02:00:12;99806.38;;;0.92;75.09
45369;BME280;51342;55.250;37.668;2023-04-05T02:02:43;99809.38;;;0.88;75.06
45369;BME280;51342;55.250;37.668;2023-04-05T02:05:15;99808.47;;;0.88;75.19
45369;BME280;51342;55.250;37.668;2023-04-05T02:07:47;99803.38;;;0.88;75.43
45369;BME280;51342;55.250;37.668;2023-04-05T02:10:19;99806.97;;;0.90;75.29
45369;BME280;51342;55.250;37.668;2023-04-05T02:12:50;99812.22;;;0.91;75.21
45369;BME280;51342;55.250;37.668;2023-04-05T02:15:22;99805.16;;;0.89;75.10
45369;BME280;51342;55.250;37.668;2023-04-05T02:17:53;99806.69;;;0.87;75.17
45369;BME280;51342;55.250;37.668;2023-04-05T02:20:24;99805.47;;;0.83;75.59
45369;BME280;51342;55.250;37.668;2023-04-05T02:22:56;99803.09;;;0.76;75.34
45369;BME280;51342;55.250;37.668;2023-04-05T02:25:28;99811.75;;;0.78;75.60
45369;BME280;51342;55.250;37.668;2023-04-05T02:27:59;99818.06;;;0.73;75.40
45369;BME280;51342;55.250;37.668;2023-04-05T02:30:31;99817.78;;;0.70;75.73
45369;BME280;51342;55.250;37.668;2023-04-05T02:33:03;99815.22;;;0.70;75.78
45369;BME280;51342;55.250;37.668;2023-04-05T02:35:35;99821.97;;;0.69;75.65
45369;BME280;51342;55.250;37.668;2023-04-05T02:38:06;99823.00;;;0.71;75.76
45369;BME280;51342;55.250;37.668;2023-04-05T02:40:38;99826.44;;;0.72;75.83
45369;BME280;51342;55.250;37.668;2023-04-05T02:43:11;99829.13;;;0.73;75.77
45369;BME280;51342;55.250;37.668;2023-04-05T02:45:43;99824.03;;;0.73;75.57
45369;BME280;51342;55.250;37.668;2023-04-05T02:48:14;99825.41;;;0.70;75.57
45369;BME280;51342;55.250;37.668;2023-04-05T02:50:47;99833.34;;;0.73;75.37
45369;BME280;51342;55.250;37.668;2023-04-05T02:53:20;99829.00;;;0.72;75.57
45369;BME280;51342;55.250;37.668;2023-04-05T02:55:59;99833.34;;;0.73;75.51
45369;BME280;51342;55.250;37.668;2023-04-05T02:58:32;99833.19;;;0.71;75.52
45369;BME280;51342;55.250;37.668;2023-04-05T03:01:05;99819.25;;;0.68;75.55
45369;BME280;51342;55.250;37.668;2023-04-05T03:03:37;99834.84;;;0.71;75.45
45369;BME280;51342;55.250;37.668;2023-04-05T03:06:11;99843.38;;;0.71;75.58
45369;BME280;51342;55.250;37.668;2023-04-05T03:08:50;99840.56;;;0.68;75.48
45369;BME280;51342;55.250;37.668;2023-04-05T03:11:25;99835.47;;;0.68;75.52
45369;BME280;51342;55.250;37.668;2023-04-05T03:14:01;99844.00;;;0.69;75.57
45369;BME280;51342;55.250;37.668;2023-04-05T03:16:39;99839.34;;;0.65;75.74
45369;BME280;51342;55.250;37.668;2023-04-05T03:19:18;99842.94;;;0.67;75.93
45369;BME280;51342;55.250;37.668;2023-04-05T03:21:54;99853.28;;;0.68;76.26
45369;BME280;51342;55.250;37.668;2023-04-05T03:24:38;99856.72;;;0.69;76.27
45369;BME280;51342;55.250;37.668;2023-04-05T03:27:14;99844.13;;;0.70;76.10
45369;BME280;51342;55.250;37.668;2023-04-05T03:30:12;99852.06;;;0.73;76.17
45369;BME280;51342;55.250;37.668;2023-04-05T03:32:49;99857.16;;;0.56;76.34
45369;BME280;51342;55.250;37.668;2023-04-05T03:35:37;99855.22;;;0.71;76.13
45369;BME280;51342;55.250;37.668;2023-04-05T03:38:11;99860.59;;;0.83;76.13
45369;BME280;51342;55.250;37.668;2023-04-05T03:40:51;99859.41;;;0.88;76.19
45369;BME280;51342;55.250;37.668;2023-04-05T03:43:22;99863.44;;;0.94;76.37
45369;BME280;51342;55.250;37.668;2023-04-05T03:45:54;99862.38;;;1.01;76.28
45369;BME280;51342;55.250;37.668;2023-04-05T03:48:26;99867.47;;;1.10;76.40
45369;BME280;51342;55.250;37.668;2023-04-05T03:50:57;99867.91;;;1.23;76.60
45369;BME280;51342;55.250;37.668;2023-04-05T03:53:28;99863.84;;;1.33;76.33
45369;BME280;51342;55.250;37.668;2023-04-05T03:56:02;99866.97;;;1.48;76.53
45369;BME280;51342;55.250;37.668;2023-04-05T03:58:52;99867.81;;;1.66;76.45
45369;BME280;51342;55.250;37.668;2023-04-05T04:01:29;99867.88;;;1.85;76.49
45369;BME280;51342;55.250;37.668;2023-04-05T04:04:01;99867.91;;;2.04;76.59
45369;BME280;51342;55.250;37.668;2023-04-05T04:06:35;99872.19;;;2.22;76.55
45369;BME280;51342;55.250;37.668;2023-04-05T04:09:07;99879.13;;;2.42;76.60
45369;BME280;51342;55.250;37.668;2023-04-05T04:11:39;99878.22;;;2.60;76.22
45369;BME280;51342;55.250;37.668;2023-04-05T04:14:11;99876.31;;;2.77;76.23
45369;BME280;51342;55.250;37.668;2023-04-05T04:17:28;99870.81;;;2.91;76.35
45369;BME280;51342;55.250;37.668;2023-04-05T04:20:19;99873.06;;;3.07;76.31
45369;BME280;51342;55.250;37.668;2023-04-05T04:22:58;99864.47;;;3.25;76.86
45369;BME280;51342;55.250;37.668;2023-04-05T04:25:49;99874.94;;;3.47;76.10
45369;BME280;51342;55.250;37.668;2023-04-05T04:28:47;99875.75;;;3.66;76.42
45369;BME280;51342;55.250;37.668;2023-04-05T04:31:28;99868.94;;;3.86;76.42
45369;BME280;51342;55.250;37.668;2023-04-05T04:34:00;99863.06;;;4.07;76.73
45369;BME280;51342;55.250;37.668;2023-04-05T04:36:49;99870.78;;;4.28;76.51
45369;BME280;51342;55.250;37.668;2023-04-05T04:39:59;99869.75;;;4.56;76.91
45369;BME280;51342;55.250;37.668;2023-04-05T04:43:02;99874.84;;;4.87;77.34
45369;BME280;51342;55.250;37.668;2023-04-05T04:46:11;99881.22;;;5.12;77.11
45369;BME280;51342;55.250;37.668;2023-04-05T04:49:03;99877.94;;;5.35;77.22
45369;BME280;51342;55.250;37.668;2023-04-05T04:51:38;99871.69;;;5.53;77.74
45369;BME280;51342;55.250;37.668;2023-04-05T04:54:10;99872.94;;;5.69;77.52
45369;BME280;51342;55.250;37.668;2023-04-05T04:56:42;99877.72;;;5.86;77.53
45369;BME280;51342;55.250;37.668;2023-04-05T04:59:14;99872.66;;;5.98;77.71
45369;BME280;51342;55.250;37.668;2023-04-05T05:01:46;99874.50;;;6.10;77.46
45369;BME280;51342;55.250;37.668;2023-04-05T05:04:17;99876.22;;;6.22;77.69
45369;BME280;51342;55.250;37.668;2023-04-05T05:06:51;99878.75;;;6.32;77.45
45369;BME280;51342;55.250;37.668;2023-04-05T05:09:22;99874.41;;;6.43;77.79
45369;BME280;51342;55.250;37.668;2023-04-05T05:11:57;99872.88;;;6.56;77.15
45369;BME280;51342;55.250;37.668;2023-04-05T05:14:31;99869.34;;;6.66;77.13
45369;BME280;51342;55.250;37.668;2023-04-05T05:17:02;99873.59;;;6.77;76.76
45369;BME280;51342;55.250;37.668;2023-04-05T05:19:35;99876.97;;;6.88;76.65
45369;BME280;51342;55.250;37.668;2023-04-05T05:22:06;99874.97;;;6.96;76.47
45369;BME280;51342;55.250;37.668;2023-04-05T05:24:38;99881.16;;;7.09;75.82
45369;BME280;51342;55.250;37.668;2023-04-05T05:27:09;99886.84;;;7.17;75.63
45369;BME280;51342;55.250;37.668;2023-04-05T05:29:41;99889.97;;;7.25;75.24
45369;BME280;51342;55.250;37.668;2023-04-05T05:32:12;99890.41;;;7.31;74.87
45369;BME280;51342;55.250;37.668;2023-04-05T05:34:45;99891.00;;;7.38;74.55
45369;BME280;51342;55.250;37.668;2023-04-05T05:37:21;99894.34;;;7.49;74.35
45369;BME280;51342;55.250;37.668;2023-04-05T05:39:59;99902.06;;;7.61;74.32
45369;BME280;51342;55.250;37.668;2023-04-05T05:42:31;99904.38;;;7.69;73.72
45369;BME280;51342;55.250;37.668;2023-04-05T05:45:06;99903.72;;;7.72;73.16
45369;BME280;51342;55.250;37.668;2023-04-05T05:47:38;99902.25;;;7.76;72.69
45369;BME280;51342;55.250;37.668;2023-04-05T05:50:09;99899.66;;;7.76;72.38
45369;BME280;51342;55.250;37.668;2023-04-05T05:52:53;99898.78;;;7.75;72.68
45369;BME280;51342;55.250;37.668;2023-04-05T05:55:24;99902.47;;;7.79;72.32
45369;BME280;51342;55.250;37.668;2023-04-05T05:57:56;99903.72;;;7.84;71.95
45369;BME280;51342;55.250;37.668;2023-04-05T06:00:39;99903.81;;;7.85;72.11
45369;BME280;51342;55.250;37.668;2023-04-05T06:03:11;99907.69;;;7.92;71.83
45369;BME280;51342;55.250;37.668;2023-04-05T06:05:53;99908.03;;;7.96;71.54
45369;BME280;51342;55.250;37.668;2023-04-05T06:08:25;99908.09;;;8.10;71.48
45369;BME280;51342;55.250;37.668;2023-04-05T06:10:59;99905.75;;;8.13;70.97
45369;BME280;51342;55.250;37.668;2023-04-05T06:13:31;99908.84;;;8.20;70.93
45369;BME280;51342;55.250;37.668;2023-04-05T06:16:27;99911.53;;;8.22;70.87
45369;BME280;51342;55.250;37.668;2023-04-05T06:19:00;99912.75;;;8.27;70.73
45369;BME280;51342;55.250;37.668;2023-04-05T06:21:32;99909.03;;;8.35;70.07
45369;BME280;51342;55.250;37.668;2023-04-05T06:24:03;99907.22;;;8.46;70.28
45369;BME280;51342;55.250;37.668;2023-04-05T06:26:35;99911.63;;;8.60;69.86
45369;BME280;51342;55.250;37.668;2023-04-05T06:29:06;99911.78;;;8.75;69.48
45369;BME280;51342;55.250;37.668;2023-04-05T06:31:37;99917.69;;;8.86;69.41
45369;BME280;51342;55.250;37.668;2023-04-05T06:34:09;99905.84;;;8.89;69.15
45369;BME280;51342;55.250;37.668;2023-04-05T06:36:40;99909.16;;;9.00;68.67
45369;BME280;51342;55.250;37.668;2023-04-05T06:39:12;99908.50;;;9.16;68.72
45369;BME280;51342;55.250;37.668;2023-04-05T06:41:44;99905.13;;;9.30;68.02
45369;BME280;51342;55.250;37.668;2023-04-05T06:44:16;99899.69;;;9.39;67.13
45369;BME280;51342;55.250;37.668;2023-04-05T06:46:47;99904.56;;;9.47;67.39
45369;BME280;51342;55.250;37.668;2023-04-05T06:49:19;99895.91;;;9.60;67.12
45369;BME280;51342;55.250;37.668;2023-04-05T06:51:50;99906.28;;;9.75;66.62
45369;BME280;51342;55.250;37.668;2023-04-05T06:54:21;99901.81;;;9.86;66.00
45369;BME280;51342;55.250;37.668;2023-04-05T06:56:54;99906.78;;;9.96;65.26
45369;BME280;51342;55.250;37.668;2023-04-05T06:59:27;99905.75;;;10.07;64.76
45369;BME280;51342;55.250;37.668;2023-04-05T07:01:59;99902.06;;;10.17;64.45
45369;BME280;51342;55.250;37.668;2023-04-05T07:04:31;99904.44;;;10.27;63.87
45369;BME280;51342;55.250;37.668;2023-04-05T07:07:06;99898.84;;;10.34;63.47
45369;BME280;51342;55.250;37.668;2023-04-05T07:09:38;99897.59;;;10.42;62.78
45369;BME280;51342;55.250;37.668;2023-04-05T07:12:10;99893.81;;;10.50;62.92
45369;BME280;51342;55.250;37.668;2023-04-05T07:14:41;99890.94;;;10.60;62.80
45369;BME280;51342;55.250;37.668;2023-04-05T07:17:13;99892.59;;;10.73;62.07
45369;BME280;51342;55.250;37.668;2023-04-05T07:19:44;99898.41;;;10.84;62.33
45369;BME280;51342;55.250;37.668;2023-04-05T07:22:16;99896.53;;;10.96;61.94
45369;BME280;51342;55.250;37.668;2023-04-05T07:24:47;99891.81;;;11.04;61.54
45369;BME280;51342;55.250;37.668;2023-04-05T07:27:19;99897.25;;;11.08;60.69
45369;BME280;51342;55.250;37.668;2023-04-05T07:29:50;99894.75;;;11.10;60.26
45369;BME280;51342;55.250;37.668;2023-04-05T07:32:45;99892.00;;;11.07;60.20
45369;BME280;51342;55.250;37.668;2023-04-05T07:35:17;99902.44;;;11.08;59.99
45369;BME280;51342;55.250;37.668;2023-04-05T07:37:48;99904.28;;;11.11;59.75
45369;BME280;51342;55.250;37.668;2023-04-05T07:40:20;99905.28;;;11.13;59.22
45369;BME280;51342;55.250;37.668;2023-04-05T07:42:51;99909.75;;;11.15;59.18
45369;BME280;51342;55.250;37.668;2023-04-05T07:45:22;99899.94;;;11.25;59.12
45369;BME280;51342;55.250;37.668;2023-04-05T07:47:54;99902.34;;;11.36;59.31
45369;BME280;51342;55.250;37.668;2023-04-05T07:50:26;99911.69;;;11.49;58.04
45369;BME280;51342;55.250;37.668;2023-04-05T07:52:57;99905.97;;;11.55;57.79
45369;BME280;51342;55.250;37.668;2023-04-05T07:55:29;99902.66;;;11.57;57.72
45369;BME280;51342;55.250;37.668;2023-04-05T07:58:00;99900.56;;;11.66;57.22
45369;BME280;51342;55.250;37.668;2023-04-05T08:00:31;99902.25;;;11.81;56.86
45369;BME280;51342;55.250;37.668;2023-04-05T08:03:03;99894.19;;;11.91;57.65
45369;BME280;51342;55.250;37.668;2023-04-05T08:05:35;99904.44;;;12.04;56.96
45369;BME280;51342;55.250;37.668;2023-04-05T08:08:06;99899.56;;;12.10;56.60
45369;BME280;51342;55.250;37.668;2023-04-05T08:10:41;99901.63;;;12.16;55.96
45369;BME280;51342;55.250;37.668;2023-04-05T08:13:12;99903.94;;;12.11;55.87
45369;BME280;51342;55.250;37.668;2023-04-05T08:15:43;99904.91;;;12.13;56.06
45369;BME280;51342;55.250;37.668;2023-04-05T08:18:15;99904.34;;;12.19;55.34
45369;BME280;51342;55.250;37.668;2023-04-05T08:20:50;99907.19;;;12.24;55.52
45369;BME280;51342;55.250;37.668;2023-04-05T08:23:22;99898.78;;;12.28;55.81
45369;BME280;51342;55.250;37.668;2023-04-05T08:25:53;99904.38;;;12.35;55.77
45369;BME280;51342;55.250;37.668;2023-04-05T08:28:25;99900.56;;;12.45;55.51
45369;BME280;51342;55.250;37.668;2023-04-05T08:30:56;99909.75;;;12.55;55.63
45369;BME280;51342;55.250;37.668;2023-04-05T08:33:28;99900.38;;;12.58;55.25
45369;BME280;51342;55.250;37.668;2023-04-05T08:36:05;99900.38;;;12.58;54.21
45369;BME280;51342;55.250;37.668;2023-04-05T08:38:37;99893.81;;;12.65;55.02
45369;BME280;51342;55.250;37.668;2023-04-05T08:41:19;99891.56;;;12.71;54.23
45369;BME280;51342;55.250;37.668;2023-04-05T08:44:02;99891.78;;;12.76;53.62
45369;BME280;51342;55.250;37.668;2023-04-05T08:46:34;99898.28;;;12.84;54.69
45369;BME280;51342;55.250;37.668;2023-04-05T08:49:06;99895.22;;;12.92;53.49
45369;BME280;51342;55.250;37.668;2023-04-05T08:51:38;99891.91;;;12.95;53.95
45369;BME280;51342;55.250;37.668;2023-04-05T08:54:10;99897.25;;;12.98;53.87
45369;BME280;51342;55.250;37.668;2023-04-05T08:56:41;99889.25;;;12.93;53.26
45369;BME280;51342;55.250;37.668;2023-04-05T08:59:17;99892.88;;;12.97;52.72
45369;BME280;51342;55.250;37.668;2023-04-05T09:01:50;99888.81;;;13.02;53.00
45369;BME280;51342;55.250;37.668;2023-04-05T09:04:23;99899.75;;;13.13;53.34
45369;BME280;51342;55.250;37.668;2023-04-05T09:07:00;99883.56;;;13.18;52.41
45369;BME280;51342;55.250;37.668;2023-04-05T09:09:35;99887.06;;;13.19;51.95
45369;BME280;51342;55.250;37.668;2023-04-05T09:12:07;99881.13;;;13.21;53.32
45369;BME280;51342;55.250;37.668;2023-04-05T09:14:39;99892.16;;;13.34;52.60
45369;BME280;51342;55.250;37.668;2023-04-05T09:17:11;99892.47;;;13.40;51.91
45369;BME280;51342;55.250;37.668;2023-04-05T09:19:43;99885.69;;;13.43;51.72
45369;BME280;51342;55.250;37.668;2023-04-05T09:22:14;99887.56;;;13.46;52.21
45369;BME280;51342;55.250;37.668;2023-04-05T09:24:48;99884.22;;;13.48;52.70
45369;BME280;51342;55.250;37.668;2023-04-05T09:27:23;99890.69;;;13.57;51.83
45369;BME280;51342;55.250;37.668;2023-04-05T09:30:00;99895.13;;;13.59;51.41
45369;BME280;51342;55.250;37.668;2023-04-05T09:32:32;99895.78;;;13.55;51.84
45369;BME280;51342;55.250;37.668;2023-04-05T09:35:06;99900.09;;;13.55;51.48
45369;BME280;51342;55.250;37.668;2023-04-05T09:37:49;99892.16;;;13.51;51.26
45369;BME280;51342;55.250;37.668;2023-04-05T09:40:23;99886.22;;;13.54;50.58
45369;BME280;51342;55.250;37.668;2023-04-05T09:42:55;99898.31;;;13.53;50.47
45369;BME280;51342;55.250;37.668;2023-04-05T09:45:29;99893.06;;;13.52;51.17
45369;BME280;51342;55.250;37.668;2023-04-05T09:48:08;99891.56;;;13.57;50.89
45369;BME280;51342;55.250;37.668;2023-04-05T09:50:40;99897.19;;;13.66;51.39
45369;BME280;51342;55.250;37.668;2023-04-05T09:53:12;99902.41;;;13.66;50.50
45369;BME280;51342;55.250;37.668;2023-04-05T09:55:47;99899.00;;;13.67;50.53
45369;BME280;51342;55.250;37.668;2023-04-05T09:58:19;99893.94;;;13.70;50.06
45369;BME280;51342;55.250;37.668;2023-04-05T10:00:51;99888.31;;;13.79;50.61
45369;BME280;51342;55.250;37.668;2023-04-05T10:03:26;99879.13;;;13.87;50.16
45369;BME280;51342;55.250;37.668;2023-04-05T10:05:59;99888.88;;;13.91;49.59
45369;BME280;51342;55.250;37.668;2023-04-05T10:08:31;99889.53;;;13.87;49.44
45369;BME280;51342;55.250;37.668;2023-04-05T10:11:04;99880.84;;;13.87;49.73
45369;BME280;51342;55.250;37.668;2023-04-05T10:13:37;99877.59;;;13.91;49.52
45369;BME280;51342;55.250;37.668;2023-04-05T10:16:12;99877.94;;;13.98;49.46
45369;BME280;51342;55.250;37.668;2023-04-05T10:18:50;99880.81;;;14.04;50.01
45369;BME280;51342;55.250;37.668;2023-04-05T10:21:22;99870.97;;;14.17;50.37
45369;BME280;51342;55.250;37.668;2023-04-05T10:24:17;99871.78;;;14.16;49.76
45369;BME280;51342;55.250;37.668;2023-04-05T10:27:11;99873.44;;;14.14;49.73
45369;BME280;51342;55.250;37.668;2023-04-05T10:30:06;99871.84;;;14.17;49.61
45369;BME280;51342;55.250;37.668;2023-04-05T10:38:24;99864.31;;;14.23;48.88
45369;BME280;51342;55.250;37.668;2023-04-05T10:41:09;99884.19;;;14.21;48.44
45369;BME280;51342;55.250;37.668;2023-04-05T10:43:43;99872.94;;;14.22;48.05
45369;BME280;51342;55.250;37.668;2023-04-05T10:46:19;99866.19;;;14.26;48.62
45369;BME280;51342;55.250;37.668;2023-04-05T10:51:33;99868.84;;;14.27;48.01
45369;BME280;51342;55.250;37.668;2023-04-05T10:54:07;99875.97;;;14.31;48.55
45369;BME280;51342;55.250;37.668;2023-04-05T10:56:40;99868.09;;;14.30;47.68
45369;BME280;51342;55.250;37.668;2023-04-05T10:59:12;99870.09;;;14.36;48.17
45369;BME280;51342;55.250;37.668;2023-04-05T11:01:45;99861.66;;;14.41;47.46
45369;BME280;51342;55.250;37.668;2023-04-05T11:04:17;99861.97;;;14.47;48.02
45369;BME280;51342;55.250;37.668;2023-04-05T11:07:12;99850.56;;;14.45;47.75
45369;BME280;51342;55.250;37.668;2023-04-05T11:10:03;99852.25;;;14.45;47.86
45369;BME280;51342;55.250;37.668;2023-04-05T11:15:33;99842.47;;;14.39;46.24
45369;BME280;51342;55.250;37.668;2023-04-05T11:18:19;99850.78;;;14.30;46.93
45369;BME280;51342;55.250;37.668;2023-04-05T11:21:04;99854.53;;;14.37;46.46
45369;BME280;51342;55.250;37.668;2023-04-05T11:24:12;99847.69;;;14.39;46.95
45369;BME280;51342;55.250;37.668;2023-04-05T11:29:16;99844.22;;;14.58;46.19
45369;BME280;51342;55.250;37.668;2023-04-05T11:31:58;99843.59;;;14.64;45.88
45369;BME280;51342;55.250;37.668;2023-04-05T11:34:34;99835.78;;;14.64;46.13
45369;BME280;51342;55.250;37.668;2023-04-05T11:37:06;99833.50;;;14.71;46.18
45369;BME280;51342;55.250;37.668;2023-04-05T11:39:37;99830.00;;;14.71;46.00
45369;BME280;51342;55.250;37.668;2023-04-05T11:42:10;99840.44;;;14.71;45.94
45369;BME280;51342;55.250;37.668;2023-04-05T11:44:47;99823.78;;;14.67;45.88
45369;BME280;51342;55.250;37.668;2023-04-05T11:47:19;99828.09;;;14.67;45.82
45369;BME280;51342;55.250;37.668;2023-04-05T11:49:53;99827.25;;;14.68;45.92
45369;BME280;51342;55.250;37.668;2023-04-05T11:52:25;99830.84;;;14.70;45.08
45369;BME280;51342;55.250;37.668;2023-04-05T11:54:56;99836.94;;;14.70;45.57
45369;BME280;51342;55.250;37.668;2023-04-05T11:57:27;99835.16;;;14.69;46.00
45369;BME280;51342;55.250;37.668;2023-04-05T11:59:59;99831.31;;;14.61;45.25
45369;BME280;51342;55.250;37.668;2023-04-05T12:02:33;99823.88;;;14.49;45.49
45369;BME280;51342;55.250;37.668;2023-04-05T12:05:05;99834.09;;;14.46;44.65
45369;BME280;51342;55.250;37.668;2023-04-05T12:07:36;99842.03;;;14.48;45.17
45369;BME280;51342;55.250;37.668;2023-04-05T12:10:09;99832.56;;;14.50;44.92
45369;BME280;51342;55.250;37.668;2023-04-05T12:12:49;99839.75;;;14.55;45.06
45369;BME280;51342;55.250;37.668;2023-04-05T12:15:21;99828.59;;;14.58;45.06
45369;BME280;51342;55.250;37.668;2023-04-05T12:17:53;99844.34;;;14.61;45.07
45369;BME280;51342;55.250;37.668;2023-04-05T12:20:25;99834.34;;;14.70;44.64
45369;BME280;51342;55.250;37.668;2023-04-05T12:22:56;99827.41;;;14.71;44.78
45369;BME280;51342;55.250;37.668;2023-04-05T12:25:28;99828.97;;;14.67;44.23
45369;BME280;51342;55.250;37.668;2023-04-05T12:28:04;99814.59;;;14.56;44.34
45369;BME280;51342;55.250;37.668;2023-04-05T12:30:50;99829.13;;;14.51;44.52
45369;BME280;51342;55.250;37.668;2023-04-05T12:35:59;99825.59;;;14.49;44.28
45369;BME280;51342;55.250;37.668;2023-04-05T12:38:36;99823.94;;;14.51;44.53
45369;BME280;51342;55.250;37.668;2023-04-05T12:41:07;99832.78;;;14.54;44.82
45369;BME280;51342;55.250;37.668;2023-04-05T12:43:39;99825.16;;;14.59;45.05
45369;BME280;51342;55.250;37.668;2023-04-05T12:46:15;99821.41;;;14.52;44.68
45369;BME280;51342;55.250;37.668;2023-04-05T12:48:50;99818.59;;;14.48;45.01
45369;BME280;51342;55.250;37.668;2023-04-05T12:51:23;99830.63;;;14.46;45.36
45369;BME280;51342;55.250;37.668;2023-04-05T12:53:55;99824.47;;;14.44;44.79
45369;BME280;51342;55.250;37.668;2023-04-05T12:56:30;99828.72;;;14.42;44.85
45369;BME280;51342;55.250;37.668;2023-04-05T12:59:05;99831.19;;;14.39;44.85
45369;BME280;51342;55.250;37.668;2023-04-05T13:01:37;99824.25;;;14.39;45.07
45369;BME280;51342;55.250;37.668;2023-04-05T13:04:09;99818.38;;;14.43;44.79
45369;BME280;51342;55.250;37.668;2023-04-05T13:06:40;99817.53;;;14.44;44.72
45369;BME280;51342;55.250;37.668;2023-04-05T13:09:12;99815.13;;;14.47;44.74
45369;BME280;51342;55.250;37.668;2023-04-05T13:11:43;99815.13;;;14.47;44.74
45369;BME280;51342;55.250;37.668;2023-04-05T13:14:15;99819.44;;;14.47;44.74
45369;BME280;51342;55.250;37.668;2023-04-05T13:16:46;99813.16;;;14.43;44.67
45369;BME280;51342;55.250;37.668;2023-04-05T13:19:17;99816.31;;;14.36;44.98
45369;BME280;51342;55.250;37.668;2023-04-05T13:21:49;99825.84;;;14.36;45.30
45369;BME280;51342;55.250;37.668;2023-04-05T13:24:20;99820.66;;;14.36;45.21
45369;BME280;51342;55.250;37.668;2023-04-05T13:26:51;99824.03;;;14.35;44.84
45369;BME280;51342;55.250;37.668;2023-04-05T13:29:23;99821.44;;;14.35;45.21
45369;BME280;51342;55.250;37.668;2023-04-05T13:31:54;99825.09;;;14.38;45.72
45369;BME280;51342;55.250;37.668;2023-04-05T13:34:26;99828.84;;;14.45;45.37
45369;BME280;51342;55.250;37.668;2023-04-05T13:36:57;99831.44;;;14.45;45.16
45369;BME280;51342;55.250;37.668;2023-04-05T13:39:29;99823.56;;;14.43;46.10
45369;BME280;51342;55.250;37.668;2023-04-05T13:42:00;99828.78;;;14.43;45.70
45369;BME280;51342;55.250;37.668;2023-04-05T13:44:32;99827.69;;;14.38;45.08
45369;BME280;51342;55.250;37.668;2023-04-05T13:47:03;99815.16;;;14.29;44.87
45369;BME280;51342;55.250;37.668;2023-04-05T13:49:34;99820.91;;;14.22;45.65
45369;BME280;51342;55.250;37.668;2023-04-05T13:52:06;99823.38;;;14.19;45.42
45369;BME280;51342;55.250;37.668;2023-04-05T13:54:37;99827.44;;;14.13;45.69
45369;BME280;51342;55.250;37.668;2023-04-05T13:57:08;99821.47;;;14.15;45.72
45369;BME280;51342;55.250;37.668;2023-04-05T13:59:41;99832.75;;;14.16;45.61
45369;BME280;51342;55.250;37.668;2023-04-05T14:02:13;99830.09;;;14.14;45.43
45369;BME280;51342;55.250;37.668;2023-04-05T14:04:45;99831.59;;;14.09;45.58